Time;durP1;ratioP1;P1;durP2;ratioP2;P2;SDS_P1;SDS_P2;PMS_P1;PMS_P2;Temp;Humidity;BMP_temperature;BMP_pressure;BME280_temperature;BME280_humidity;BME280_pressure;Samples;Min_cycle;Max_cycle;Signal;HPM_P1;HPM_P2
2023/09/01 00:02:21;;;;;;;27.27;10.27;;;;;;;;;;4913348;29;20356;-82
2023/09/01 00:05:04;;;;;;;21.13;9.93;;;;;;;;;;4911736;29;20403;-82
2023/09/01 00:07:35;;;;;;;24.63;9.82;;;;;;;;;;4913860;29;20052;-83
2023/09/01 00:10:12;;;;;;;24.17;9.43;;;;;;;;;;4911156;29;20048;-83
2023/09/01 00:12:45;;;;;;;19.58;8.77;;;;;;;;;;4927266;29;20059;-82
2023/09/01 00:15:17;;;;;;;21.55;10.23;;;;;;;;;;4950169;29;20040;-80
2023/09/01 00:17:48;;;;;;;21.63;9.30;;;;;;;;;;4923648;29;20043;-81
2023/09/01 00:20:19;;;;;;;18.33;9.98;;;;;;;;;;4955541;29;20046;-81
2023/09/01 00:22:51;;;;;;;21.52;9.48;;;;;;;;;;4959023;29;20048;-86
2023/09/01 00:25:24;;;;;;;23.25;9.43;;;;;;;;;;4944586;29;20035;-82
2023/09/01 00:27:55;;;;;;;16.75;8.93;;;;;;;;;;4945684;29;20048;-82
2023/09/01 00:30:29;;;;;;;20.35;8.93;;;;;;;;;;4954181;29;20048;-82
2023/09/01 00:33:02;;;;;;;21.38;8.82;;;;;;;;;;4902275;29;20048;-82
2023/09/01 00:36:00;;;;;;;20.83;9.32;;;;;;;;;;4900644;29;20048;-83
2023/09/01 00:38:35;;;;;;;21.85;8.60;;;;;;;;;;4903214;29;20055;-83
2023/09/01 00:41:11;;;;;;;19.35;9.10;;;;;;;;;;4908410;29;20044;-81
2023/09/01 00:43:48;;;;;;;21.40;8.63;;;;;;;;;;4902932;29;20044;-80
2023/09/01 00:46:19;;;;;;;25.42;9.52;;;;;;;;;;4912707;29;20371;-83
2023/09/01 00:48:51;;;;;;;21.30;9.00;;;;;;;;;;4937805;29;20483;-82
2023/09/01 00:51:30;;;;;;;18.88;9.38;;;;;;;;;;4937892;29;20051;-84
2023/09/01 00:54:04;;;;;;;19.02;9.43;;;;;;;;;;4905449;29;20051;-82
2023/09/01 00:56:36;;;;;;;19.98;9.82;;;;;;;;;;4936991;29;20039;-84
2023/09/01 00:59:11;;;;;;;21.33;8.90;;;;;;;;;;4921392;29;20047;-82
2023/09/01 01:04:40;;;;;;;22.90;8.70;;;;;;;;;;4905025;29;20055;-82
2023/09/01 01:07:28;;;;;;;20.40;8.43;;;;;;;;;;4918497;29;20048;-81
2023/09/01 01:10:18;;;;;;;19.02;8.40;;;;;;;;;;4926618;29;20063;-83
2023/09/01 01:13:00;;;;;;;18.13;8.70;;;;;;;;;;4903605;29;20043;-84
2023/09/01 01:15:36;;;;;;;21.92;9.30;;;;;;;;;;4905550;29;20140;-83
2023/09/01 01:18:12;;;;;;;18.58;8.38;;;;;;;;;;4919160;29;20040;-80
2023/09/01 01:20:52;;;;;;;21.00;8.38;;;;;;;;;;4936955;29;20040;-82
2023/09/01 01:23:24;;;;;;;19.88;8.75;;;;;;;;;;4936274;29;20044;-83
2023/09/01 01:25:56;;;;;;;16.83;8.23;;;;;;;;;;4919648;29;20048;-82
2023/09/01 01:28:27;;;;;;;17.50;7.68;;;;;;;;;;4918626;29;20044;-83
2023/09/01 01:30:57;;;;;;;17.60;8.18;;;;;;;;;;4919579;29;20475;-83
2023/09/01 01:34:09;;;;;;;18.83;8.10;;;;;;;;;;4919891;29;20051;-82
2023/09/01 01:37:27;;;;;;;15.32;8.13;;;;;;;;;;4930273;29;20051;-83
2023/09/01 01:40:05;;;;;;;16.98;7.90;;;;;;;;;;4892768;29;20054;-81
2023/09/01 01:42:37;;;;;;;16.60;8.40;;;;;;;;;;4918035;29;20518;-79
2023/09/01 01:45:09;;;;;;;17.65;8.30;;;;;;;;;;4919684;29;20044;-81
2023/09/01 01:47:41;;;;;;;20.30;8.90;;;;;;;;;;4903081;29;20051;-83
2023/09/01 01:50:13;;;;;;;22.52;9.48;;;;;;;;;;4928675;29;20414;-82
2023/09/01 01:52:46;;;;;;;19.50;8.90;;;;;;;;;;4885097;29;20396;-80
2023/09/01 01:55:16;;;;;;;19.15;9.13;;;;;;;;;;4884378;29;20063;-82
2023/09/01 01:57:47;;;;;;;21.80;8.43;;;;;;;;;;4899794;29;20495;-82
2023/09/01 02:00:19;;;;;;;22.00;9.02;;;;;;;;;;4899288;29;20055;-82
2023/09/01 02:02:50;;;;;;;20.15;9.07;;;;;;;;;;4918674;29;20048;-81
2023/09/01 02:05:20;;;;;;;24.02;8.23;;;;;;;;;;4900018;29;20044;-80
2023/09/01 02:07:52;;;;;;;17.10;9.18;;;;;;;;;;4899608;29;20067;-82
2023/09/01 02:10:25;;;;;;;22.02;8.77;;;;;;;;;;4898915;29;20059;-81
2023/09/01 02:12:56;;;;;;;21.13;8.35;;;;;;;;;;4899282;29;20059;-81
2023/09/01 02:15:26;;;;;;;21.80;8.30;;;;;;;;;;4899220;29;20052;-80
2023/09/01 02:17:57;;;;;;;18.98;9.45;;;;;;;;;;4899301;29;20051;-82
2023/09/01 02:20:37;;;;;;;16.60;8.48;;;;;;;;;;4900175;29;20522;-81
2023/09/01 02:23:09;;;;;;;19.55;9.23;;;;;;;;;;4912951;29;20055;-82
2023/09/01 02:25:40;;;;;;;26.02;10.52;;;;;;;;;;4918894;29;20052;-81
2023/09/01 02:28:12;;;;;;;18.88;9.40;;;;;;;;;;4917893;29;20056;-82
2023/09/01 02:30:45;;;;;;;19.10;9.10;;;;;;;;;;4918349;29;20507;-83
2023/09/01 02:33:18;;;;;;;20.80;8.75;;;;;;;;;;4936152;29;20099;-85
2023/09/01 02:35:49;;;;;;;18.20;9.20;;;;;;;;;;4934105;29;20499;-83
2023/09/01 02:38:21;;;;;;;23.45;8.88;;;;;;;;;;4917786;29;20055;-83
2023/09/01 02:40:53;;;;;;;20.38;8.95;;;;;;;;;;4918128;29;20387;-82
2023/09/01 02:43:24;;;;;;;17.95;8.82;;;;;;;;;;4918647;29;20046;-81
2023/09/01 02:45:55;;;;;;;22.35;9.05;;;;;;;;;;4916461;29;20055;-81
2023/09/01 02:48:27;;;;;;;19.35;8.60;;;;;;;;;;4916695;29;20047;-80
2023/09/01 02:50:59;;;;;;;18.40;8.07;;;;;;;;;;4933723;29;20044;-81
2023/09/01 02:53:29;;;;;;;17.08;8.57;;;;;;;;;;4935068;29;20055;-81
2023/09/01 02:55:59;;;;;;;18.25;8.38;;;;;;;;;;4918748;29;20394;-80
2023/09/01 02:58:32;;;;;;;17.67;8.70;;;;;;;;;;4918267;29;20044;-80
2023/09/01 03:01:07;;;;;;;15.50;8.52;;;;;;;;;;4934427;29;20505;-81
2023/09/01 03:03:40;;;;;;;22.30;8.68;;;;;;;;;;4918188;29;20063;-81
2023/09/01 03:06:11;;;;;;;27.85;9.40;;;;;;;;;;4936134;29;20035;-80
2023/09/01 03:08:44;;;;;;;23.58;8.73;;;;;;;;;;4917984;29;20118;-80
2023/09/01 03:11:15;;;;;;;18.05;8.65;;;;;;;;;;4917931;29;20051;-81
2023/09/01 03:13:46;;;;;;;16.48;8.13;;;;;;;;;;4935678;29;20106;-80
2023/09/01 03:16:17;;;;;;;27.90;8.00;;;;;;;;;;4918516;29;20043;-81
2023/09/01 03:18:47;;;;;;;16.52;7.97;;;;;;;;;;4918279;29;20490;-80
2023/09/01 03:21:19;;;;;;;18.73;8.63;;;;;;;;;;4933880;29;20052;-81
2023/09/01 03:23:50;;;;;;;21.23;9.18;;;;;;;;;;4918432;29;20479;-80
2023/09/01 03:26:22;;;;;;;18.02;8.65;;;;;;;;;;4918456;29;20055;-79
2023/09/01 03:28:55;;;;;;;25.15;9.35;;;;;;;;;;4933969;29;20133;-80
2023/09/01 03:31:31;;;;;;;16.80;8.70;;;;;;;;;;4918514;29;20048;-81
2023/09/01 03:34:03;;;;;;;17.45;8.75;;;;;;;;;;4917852;29;20495;-80
2023/09/01 03:36:34;;;;;;;15.10;7.38;;;;;;;;;;4935374;29;20051;-80
2023/09/01 03:39:09;;;;;;;19.70;9.38;;;;;;;;;;4919292;29;20047;-81
2023/09/01 03:41:40;;;;;;;21.73;8.90;;;;;;;;;;4921590;29;20048;-81
2023/09/01 03:44:11;;;;;;;18.50;7.57;;;;;;;;;;4939510;29;20048;-80
2023/09/01 03:46:41;;;;;;;17.02;7.78;;;;;;;;;;4921562;29;20055;-80
2023/09/01 03:49:12;;;;;;;18.20;7.82;;;;;;;;;;4921970;29;20145;-80
2023/09/01 03:51:45;;;;;;;13.65;7.75;;;;;;;;;;4906265;29;20056;-80
2023/09/01 03:54:16;;;;;;;19.75;7.75;;;;;;;;;;4921543;29;20047;-79
2023/09/01 03:56:46;;;;;;;14.27;6.50;;;;;;;;;;4921189;29;20514;-79
2023/09/01 03:59:19;;;;;;;19.15;7.78;;;;;;;;;;4939394;29;20403;-82
2023/09/01 04:01:50;;;;;;;18.75;8.30;;;;;;;;;;4938646;29;20043;-81
2023/09/01 04:04:21;;;;;;;15.70;8.48;;;;;;;;;;4936927;29;20054;-82
2023/09/01 04:06:53;;;;;;;16.65;7.30;;;;;;;;;;4921233;29;20047;-82
2023/09/01 04:09:23;;;;;;;14.18;7.63;;;;;;;;;;4938711;29;20055;-81
2023/09/01 04:11:56;;;;;;;15.07;7.90;;;;;;;;;;4939640;29;20040;-80
2023/09/01 04:14:27;;;;;;;18.40;7.43;;;;;;;;;;4938659;29;20475;-83
2023/09/01 04:16:59;;;;;;;19.77;8.18;;;;;;;;;;4905499;29;20455;-81
2023/09/01 04:19:29;;;;;;;14.07;7.50;;;;;;;;;;4938872;29;20359;-81
2023/09/01 04:22:04;;;;;;;16.92;7.85;;;;;;;;;;4931852;29;20048;-81
2023/09/01 04:24:37;;;;;;;13.32;7.25;;;;;;;;;;4902144;29;20055;-81
2023/09/01 04:27:09;;;;;;;19.33;7.10;;;;;;;;;;4901891;29;20059;-81
2023/09/01 04:29:40;;;;;;;15.95;7.53;;;;;;;;;;4902772;29;20463;-81
2023/09/01 04:32:25;;;;;;;15.77;7.82;;;;;;;;;;4901969;29;20440;-80
2023/09/01 04:34:55;;;;;;;17.10;7.97;;;;;;;;;;4901284;29;20051;-81
2023/09/01 04:37:26;;;;;;;17.25;7.80;;;;;;;;;;4903026;29;20040;-81
2023/09/01 04:39:57;;;;;;;15.10;7.90;;;;;;;;;;4901920;29;20174;-80
2023/09/01 04:42:30;;;;;;;14.43;7.10;;;;;;;;;;4919338;29;20043;-82
2023/09/01 04:45:03;;;;;;;13.75;7.13;;;;;;;;;;4886342;29;20048;-82
2023/09/01 04:47:39;;;;;;;16.92;7.53;;;;;;;;;;4886573;29;20044;-81
2023/09/01 04:50:10;;;;;;;16.30;7.95;;;;;;;;;;4901250;29;20341;-81
2023/09/01 04:52:42;;;;;;;16.13;7.20;;;;;;;;;;4900707;29;20052;-81
2023/09/01 04:55:14;;;;;;;16.20;8.10;;;;;;;;;;4902641;29;20044;-82
2023/09/01 04:57:46;;;;;;;15.10;7.18;;;;;;;;;;4901576;29;20481;-82
2023/09/01 05:00:16;;;;;;;17.35;7.60;;;;;;;;;;4901263;29;20044;-80
2023/09/01 05:02:49;;;;;;;15.18;7.45;;;;;;;;;;4901767;29;20056;-83
2023/09/01 05:05:22;;;;;;;15.43;7.72;;;;;;;;;;4901108;29;20040;-82
2023/09/01 05:07:53;;;;;;;14.63;7.70;;;;;;;;;;4898147;29;20507;-82
2023/09/01 05:10:23;;;;;;;15.18;7.47;;;;;;;;;;4867242;29;20511;-81
2023/09/01 05:12:54;;;;;;;16.20;7.65;;;;;;;;;;4897818;29;20496;-82
2023/09/01 05:15:25;;;;;;;14.30;7.47;;;;;;;;;;4899939;29;20048;-81
2023/09/01 05:17:58;;;;;;;14.52;8.18;;;;;;;;;;4881840;29;20044;-80
2023/09/01 05:20:29;;;;;;;16.40;7.78;;;;;;;;;;4882193;29;20048;-80
2023/09/01 05:22:59;;;;;;;13.30;7.53;;;;;;;;;;4897742;29;20056;-80
2023/09/01 05:25:29;;;;;;;17.80;7.47;;;;;;;;;;4882623;29;20106;-82
2023/09/01 05:28:02;;;;;;;14.80;8.27;;;;;;;;;;4897480;29;20053;-80
2023/09/01 05:30:39;;;;;;;17.60;8.57;;;;;;;;;;4897514;29;20053;-81
2023/09/01 05:33:09;;;;;;;16.05;8.10;;;;;;;;;;4898116;29;20067;-82
2023/09/01 05:35:45;;;;;;;14.02;7.50;;;;;;;;;;4882213;29;20053;-81
2023/09/01 05:38:16;;;;;;;15.70;7.63;;;;;;;;;;4897526;29;20463;-81
2023/09/01 05:41:02;;;;;;;14.55;7.90;;;;;;;;;;4882427;29;20053;-79
2023/09/01 05:43:34;;;;;;;18.85;7.95;;;;;;;;;;4896955;29;20061;-82
2023/09/01 05:46:05;;;;;;;20.00;8.48;;;;;;;;;;4896923;29;20056;-82
2023/09/01 05:48:37;;;;;;;21.10;8.95;;;;;;;;;;4881615;29;20052;-83
2023/09/01 05:51:08;;;;;;;16.70;7.80;;;;;;;;;;4897813;29;20074;-82
2023/09/01 05:53:38;;;;;;;17.33;7.90;;;;;;;;;;4896885;29;20044;-81
2023/09/01 05:56:12;;;;;;;16.48;8.65;;;;;;;;;;4898987;29;20040;-81
2023/09/01 05:58:47;;;;;;;19.05;8.60;;;;;;;;;;4899086;29;20044;-81
2023/09/01 06:01:22;;;;;;;17.58;8.65;;;;;;;;;;4883352;29;20067;-82
2023/09/01 06:03:54;;;;;;;18.23;8.20;;;;;;;;;;4898576;29;20468;-81
2023/09/01 06:06:24;;;;;;;15.18;7.43;;;;;;;;;;4911213;29;20072;-81
2023/09/01 06:08:56;;;;;;;20.17;8.07;;;;;;;;;;4933899;29;20048;-80
2023/09/01 06:11:30;;;;;;;16.33;7.80;;;;;;;;;;4935661;29;20035;-79
2023/09/01 06:14:01;;;;;;;18.70;8.88;;;;;;;;;;4924618;28;20036;-80
2023/09/01 06:16:31;;;;;;;18.40;9.20;;;;;;;;;;4940703;28;20032;-81
2023/09/01 06:19:07;;;;;;;15.40;8.00;;;;;;;;;;4924382;28;20058;-80
2023/09/01 06:21:39;;;;;;;16.50;8.95;;;;;;;;;;4926719;29;20484;-83
2023/09/01 06:24:15;;;;;;;15.77;8.02;;;;;;;;;;4917580;29;20063;-82
2023/09/01 06:26:45;;;;;;;17.33;8.00;;;;;;;;;;4914838;29;20063;-83
2023/09/01 06:29:16;;;;;;;19.05;8.95;;;;;;;;;;4917473;29;20502;-81
2023/09/01 06:31:52;;;;;;;24.92;8.27;;;;;;;;;;4917268;29;20345;-80
2023/09/01 06:34:27;;;;;;;15.40;7.90;;;;;;;;;;4917614;29;20044;-83
2023/09/01 06:36:57;;;;;;;19.33;7.60;;;;;;;;;;4899960;29;20055;-82
2023/09/01 06:39:30;;;;;;;15.77;8.02;;;;;;;;;;4917086;29;20048;-81
2023/09/01 06:42:07;;;;;;;16.35;8.75;;;;;;;;;;4917731;29;20040;-80
2023/09/01 06:44:37;;;;;;;16.55;8.25;;;;;;;;;;4900871;29;20055;-80
2023/09/01 06:47:07;;;;;;;16.50;8.07;;;;;;;;;;4899398;29;20423;-78
2023/09/01 06:49:37;;;;;;;18.08;8.35;;;;;;;;;;4899734;29;20044;-80
2023/09/01 06:52:08;;;;;;;15.50;8.60;;;;;;;;;;4916879;29;20039;-83
2023/09/01 06:54:39;;;;;;;17.38;8.05;;;;;;;;;;4900047;29;20059;-82
2023/09/01 06:57:10;;;;;;;17.48;7.95;;;;;;;;;;4915270;29;20383;-81
2023/09/01 06:59:40;;;;;;;16.77;8.05;;;;;;;;;;4915691;29;20063;-80
2023/09/01 07:02:15;;;;;;;16.52;8.32;;;;;;;;;;4915924;29;20044;-82
2023/09/01 07:04:46;;;;;;;19.67;8.13;;;;;;;;;;4916721;29;20051;-81
2023/09/01 07:07:18;;;;;;;17.42;8.25;;;;;;;;;;4914770;29;20048;-80
2023/09/01 07:09:49;;;;;;;16.52;7.80;;;;;;;;;;4917218;29;20067;-80
2023/09/01 07:12:22;;;;;;;14.85;8.40;;;;;;;;;;4900113;29;20130;-81
2023/09/01 07:14:53;;;;;;;16.33;8.02;;;;;;;;;;4917713;29;20048;-81
2023/09/01 07:17:24;;;;;;;15.55;7.43;;;;;;;;;;4903771;29;20055;-80
2023/09/01 07:19:54;;;;;;;15.23;7.85;;;;;;;;;;4904599;29;20047;-80
2023/09/01 07:22:26;;;;;;;17.75;8.60;;;;;;;;;;4920738;29;20476;-79
2023/09/01 07:24:58;;;;;;;20.52;7.70;;;;;;;;;;4920558;29;20051;-81
2023/09/01 07:27:29;;;;;;;19.35;7.93;;;;;;;;;;4920376;29;20044;-80
2023/09/01 07:30:00;;;;;;;17.88;8.18;;;;;;;;;;4921048;29;20397;-81
2023/09/01 07:32:34;;;;;;;18.02;8.75;;;;;;;;;;4920045;29;20456;-83
2023/09/01 07:35:07;;;;;;;17.65;8.15;;;;;;;;;;4919877;29;20052;-83
2023/09/01 07:37:39;;;;;;;17.90;8.10;;;;;;;;;;4919392;29;20044;-80
2023/09/01 07:40:09;;;;;;;20.52;8.35;;;;;;;;;;4903360;29;20052;-81
2023/09/01 07:42:41;;;;;;;16.58;8.65;;;;;;;;;;4919233;29;20048;-83
2023/09/01 07:45:15;;;;;;;19.13;8.63;;;;;;;;;;4920683;29;20052;-81
2023/09/01 07:47:48;;;;;;;17.45;8.30;;;;;;;;;;4920243;29;20036;-81
2023/09/01 07:50:39;;;;;;;19.52;8.38;;;;;;;;;;4919824;29;20044;-80
2023/09/01 07:53:12;;;;;;;23.45;9.00;;;;;;;;;;4903015;29;20055;-81
2023/09/01 07:55:45;;;;;;;24.05;9.52;;;;;;;;;;4918629;29;20059;-80
2023/09/01 07:58:17;;;;;;;22.83;8.57;;;;;;;;;;4903935;29;20044;-83
2023/09/01 08:00:46;;;;;;;17.38;8.40;;;;;;;;;;4901996;29;20052;-80
2023/09/01 08:03:17;;;;;;;16.58;8.57;;;;;;;;;;4918736;29;20047;-80
2023/09/01 08:05:50;;;;;;;16.45;8.27;;;;;;;;;;4902594;29;20052;-81
2023/09/01 08:08:21;;;;;;;17.02;8.27;;;;;;;;;;4918711;29;20044;-80
2023/09/01 08:10:55;;;;;;;17.50;8.15;;;;;;;;;;4903758;29;20047;-80
2023/09/01 08:13:29;;;;;;;15.23;7.97;;;;;;;;;;4903696;29;20367;-83
2023/09/01 08:16:02;;;;;;;19.48;9.43;;;;;;;;;;4926324;29;20043;-80
2023/09/01 08:18:37;;;;;;;;;;;;;;;;;;4939228;29;20042;-82
2023/09/01 08:21:07;;;;;;;19.52;8.00;;;;;;;;;;4921887;29;20381;-79
2023/09/01 08:23:40;;;;;;;;;;;;;;;;;;4939333;29;20066;-80
2023/09/01 08:26:14;;;;;;;22.05;8.18;;;;;;;;;;4938382;29;19926;-80
2023/09/01 08:28:47;;;;;;;19.70;8.68;;;;;;;;;;4938886;29;20058;-79
2023/09/01 08:31:20;;;;;;;16.60;8.02;;;;;;;;;;4920698;29;20458;-80
2023/09/01 08:33:49;;;;;;;17.15;8.80;;;;;;;;;;4937900;29;20406;-79
2023/09/01 08:36:26;;;;;;;18.55;8.63;;;;;;;;;;4938745;29;20047;-80
2023/09/01 08:39:00;;;;;;;15.77;7.95;;;;;;;;;;4921069;29;20055;-79
2023/09/01 08:41:31;;;;;;;17.35;8.55;;;;;;;;;;4921841;29;20043;-82
2023/09/01 08:44:06;;;;;;;17.85;8.10;;;;;;;;;;4938402;29;20051;-83
2023/09/01 08:46:38;;;;;;;16.40;8.50;;;;;;;;;;4931559;29;20032;-80
2023/09/01 08:49:09;;;;;;;;;;;;;;;;;;4920859;29;20506;-82
2023/09/01 08:51:41;;;;;;;17.20;7.95;;;;;;;;;;4937439;29;19918;-79
2023/09/01 08:54:13;;;;;;;14.10;7.65;;;;;;;;;;4936908;29;20439;-81
2023/09/01 08:56:43;;;;;;;19.73;8.20;;;;;;;;;;4918443;29;20044;-80
2023/09/01 08:59:18;;;;;;;17.60;7.60;;;;;;;;;;4936966;29;20464;-83
2023/09/01 09:01:51;;;;;;;17.63;8.57;;;;;;;;;;4920698;29;20043;-81
2023/09/01 09:04:21;;;;;;;21.17;8.73;;;;;;;;;;4936942;29;20054;-80
2023/09/01 09:06:52;;;;;;;16.98;9.63;;;;;;;;;;4934811;29;20450;-81
2023/09/01 09:09:26;;;;;;;18.20;8.10;;;;;;;;;;4933312;29;20051;-81
2023/09/01 09:12:05;;;;;;;15.88;8.40;;;;;;;;;;4935696;29;20046;-84
2023/09/01 09:14:48;;;;;;;22.15;9.10;;;;;;;;;;4917857;29;20364;-81
2023/09/01 09:17:40;;;;;;;;;;;;;;;;;;4927183;29;20035;-79
2023/09/01 09:20:14;;;;;;;16.98;8.63;;;;;;;;;;4934587;29;20361;-82
2023/09/01 09:22:52;;;;;;;19.55;8.60;;;;;;;;;;4935016;29;20044;-81
2023/09/01 09:25:33;;;;;;;18.52;8.52;;;;;;;;;;4936514;29;20093;-80
2023/09/01 09:28:15;;;;;;;15.18;8.25;;;;;;;;;;4918930;29;20059;-81
2023/09/01 09:30:53;;;;;;;19.88;8.88;;;;;;;;;;4919017;29;20040;-82
2023/09/01 09:33:30;;;;;;;16.23;8.45;;;;;;;;;;4936529;29;20395;-80
2023/09/01 09:36:01;;;;;;;19.42;8.82;;;;;;;;;;4936329;29;20393;-81
2023/09/01 09:38:46;;;;;;;16.40;8.82;;;;;;;;;;4918566;29;20039;-80
2023/09/01 09:41:17;;;;;;;16.67;8.27;;;;;;;;;;4919464;29;20050;-81
2023/09/01 09:43:51;;;;;;;16.40;8.75;;;;;;;;;;4935787;29;20047;-81
2023/09/01 09:46:22;;;;;;;21.45;9.23;;;;;;;;;;4936225;29;20043;-82
2023/09/01 09:48:56;;;;;;;17.90;9.05;;;;;;;;;;4919576;29;20036;-81
2023/09/01 09:51:30;;;;;;;23.83;8.93;;;;;;;;;;4936332;29;20048;-80
2023/09/01 09:54:04;;;;;;;15.27;8.13;;;;;;;;;;4918143;29;20052;-81
2023/09/01 09:56:37;;;;;;;18.90;8.75;;;;;;;;;;4919196;29;20044;-81
2023/09/01 09:59:13;;;;;;;21.40;8.98;;;;;;;;;;4936177;29;20050;-82
2023/09/01 10:01:53;;;;;;;20.52;8.82;;;;;;;;;;4936125;29;20054;-82
2023/09/01 10:04:25;;;;;;;17.02;8.52;;;;;;;;;;4936788;29;20047;-81
2023/09/01 10:06:57;;;;;;;24.30;8.68;;;;;;;;;;4935937;29;20048;-81
2023/09/01 10:09:28;;;;;;;22.05;8.43;;;;;;;;;;4919398;29;20048;-82
2023/09/01 10:11:59;;;;;;;22.33;8.88;;;;;;;;;;4903037;29;20058;-80
2023/09/01 10:14:30;;;;;;;24.00;10.32;;;;;;;;;;4917727;29;20047;-81
2023/09/01 10:17:02;;;;;;;28.25;12.43;;;;;;;;;;4936362;29;20043;-81
2023/09/01 10:19:34;;;;;;;23.25;10.48;;;;;;;;;;4936751;29;20039;-81
2023/09/01 10:22:05;;;;;;;23.10;10.43;;;;;;;;;;4937042;29;20047;-79
2023/09/01 10:24:36;;;;;;;22.92;10.43;;;;;;;;;;4936871;29;20039;-81
2023/09/01 10:27:09;;;;;;;25.27;9.55;;;;;;;;;;4935956;29;20047;-79
2023/09/01 10:29:39;;;;;;;26.00;9.45;;;;;;;;;;4935690;29;20074;-81
2023/09/01 10:32:17;;;;;;;20.85;8.82;;;;;;;;;;4936200;29;20047;-81
2023/09/01 10:34:52;;;;;;;23.90;8.65;;;;;;;;;;4936128;29;20047;-81
2023/09/01 10:37:31;;;;;;;19.65;8.32;;;;;;;;;;4935968;29;20039;-81
2023/09/01 10:40:04;;;;;;;21.02;8.48;;;;;;;;;;4920064;29;20063;-79
2023/09/01 10:42:48;;;;;;;26.67;9.52;;;;;;;;;;4936527;29;20051;-79
2023/09/01 10:45:19;;;;;;;20.52;8.27;;;;;;;;;;4936079;29;20490;-80
2023/09/01 10:47:53;;;;;;;21.42;8.60;;;;;;;;;;4936214;29;20043;-81
2023/09/01 10:50:23;;;;;;;21.58;8.25;;;;;;;;;;4936500;29;20392;-81
2023/09/01 10:53:31;;;;;;;26.83;8.95;;;;;;;;;;4935488;29;20402;-80
2023/09/01 10:56:33;;;;;;;17.00;7.90;;;;;;;;;;4897606;29;20053;-80
2023/09/01 10:59:05;;;;;;;17.77;8.30;;;;;;;;;;4895172;29;20059;-79
2023/09/01 11:01:38;;;;;;;14.50;7.10;;;;;;;;;;4878972;29;20053;-81
2023/09/01 11:04:19;;;;;;;18.00;7.22;;;;;;;;;;4875510;29;20044;-81
2023/09/01 11:07:08;;;;;;;14.27;6.63;;;;;;;;;;4873435;29;20044;-80
2023/09/01 11:09:42;;;;;;;14.07;6.50;;;;;;;;;;4871303;29;20037;-78
2023/09/01 11:12:13;;;;;;;19.63;7.78;;;;;;;;;;4886466;29;20555;-80
2023/09/01 11:14:56;;;;;;;20.25;7.75;;;;;;;;;;4903792;29;20052;-77
2023/09/01 11:17:37;;;;;;;23.27;9.07;;;;;;;;;;4901885;29;21305;-78
2023/09/01 11:20:16;;;;;;;20.00;7.72;;;;;;;;;;4893971;29;20063;-80
2023/09/01 11:22:49;;;;;;;21.75;7.43;;;;;;;;;;4936103;28;20048;-76
2023/09/01 11:25:19;;;;;;;25.48;8.00;;;;;;;;;;4949004;28;20032;-81
2023/09/01 11:27:51;;;;;;;23.75;7.78;;;;;;;;;;4941835;29;20040;-80
2023/09/01 11:30:28;;;;;;;27.63;11.25;;;;;;;;;;4907948;29;20052;-79
2023/09/01 11:33:00;;;;;;;29.38;11.25;;;;;;;;;;4925144;29;20040;-79
2023/09/01 11:35:35;;;;;;;18.52;9.38;;;;;;;;;;4927067;29;20386;-79
2023/09/01 11:38:18;;;;;;;24.95;10.00;;;;;;;;;;4919011;29;20036;-80
2023/09/01 11:40:53;;;;;;;22.73;9.35;;;;;;;;;;4926387;29;20514;-79
2023/09/01 11:43:25;;;;;;;22.90;8.30;;;;;;;;;;4923225;29;20074;-78
2023/09/01 11:45:59;;;;;;;26.50;8.55;;;;;;;;;;4924469;29;20040;-80
2023/09/01 11:48:34;;;;;;;26.13;8.73;;;;;;;;;;4891385;29;20043;-79
2023/09/01 11:51:08;;;;;;;22.15;8.68;;;;;;;;;;4925389;29;20051;-79
2023/09/01 11:53:43;;;;;;;18.05;8.25;;;;;;;;;;4915030;29;20048;-79
2023/09/01 11:56:22;;;;;;;21.13;8.68;;;;;;;;;;4915622;29;20048;-80
2023/09/01 11:58:55;;;;;;;20.52;8.00;;;;;;;;;;4917790;29;20048;-79
2023/09/01 12:01:35;;;;;;;19.92;7.93;;;;;;;;;;4917424;29;20365;-79
2023/09/01 12:04:10;;;;;;;15.35;8.43;;;;;;;;;;4920051;29;20040;-78
2023/09/01 12:06:44;;;;;;;16.48;8.68;;;;;;;;;;4938597;29;20055;-80
2023/09/01 12:09:21;;;;;;;22.85;8.90;;;;;;;;;;4921460;29;20051;-79
2023/09/01 12:11:54;;;;;;;25.65;8.57;;;;;;;;;;4935384;29;20051;-80
2023/09/01 12:14:29;;;;;;;20.90;8.52;;;;;;;;;;4935482;29;20044;-78
2023/09/01 12:17:00;;;;;;;23.40;9.50;;;;;;;;;;4913420;29;20055;-78
2023/09/01 12:19:46;;;;;;;30.15;10.20;;;;;;;;;;4912133;29;20054;-79
2023/09/01 12:22:21;;;;;;;21.77;8.25;;;;;;;;;;4936181;29;20055;-81
2023/09/01 12:24:56;;;;;;;23.73;9.13;;;;;;;;;;4938685;29;20051;-82
2023/09/01 12:27:30;;;;;;;19.92;8.77;;;;;;;;;;4922116;29;20050;-83
2023/09/01 12:30:02;;;;;;;25.33;9.18;;;;;;;;;;4933400;29;20040;-81
2023/09/01 12:32:35;;;;;;;17.95;9.35;;;;;;;;;;4935881;29;20052;-81
2023/09/01 12:35:11;;;;;;;18.50;8.43;;;;;;;;;;4906237;29;20059;-81
2023/09/01 12:37:44;;;;;;;36.47;14.93;;;;;;;;;;4919389;29;20044;-82
2023/09/01 12:40:14;;;;;;;23.95;10.55;;;;;;;;;;4938048;29;20035;-80
2023/09/01 12:42:47;;;;;;;24.77;9.68;;;;;;;;;;4922009;29;20074;-81
2023/09/01 12:45:19;;;;;;;19.85;9.13;;;;;;;;;;4929348;29;20055;-80
2023/09/01 12:47:50;;;;;;;19.23;8.98;;;;;;;;;;4919682;29;20056;-82
2023/09/01 12:50:20;;;;;;;25.45;11.00;;;;;;;;;;4919508;29;20059;-80
2023/09/01 12:52:54;;;;;;;22.98;10.10;;;;;;;;;;4921366;29;20052;-82
2023/09/01 12:55:25;;;;;;;22.38;9.63;;;;;;;;;;4929252;29;20036;-81
2023/09/01 12:57:56;;;;;;;20.95;10.30;;;;;;;;;;4928602;29;20487;-79
2023/09/01 13:00:26;;;;;;;25.35;11.77;;;;;;;;;;4922682;29;20051;-82
2023/09/01 13:02:57;;;;;;;25.88;11.02;;;;;;;;;;4921990;29;20051;-80
2023/09/01 13:05:33;;;;;;;27.58;12.15;;;;;;;;;;4908276;29;20446;-81
2023/09/01 13:08:55;;;;;;;56.45;25.17;;;;;;;;;;4934122;29;20059;-81
2023/09/01 13:11:26;;;;;;;37.35;21.52;;;;;;;;;;4922298;29;20128;-82
2023/09/01 13:13:58;;;;;;;33.25;17.52;;;;;;;;;;4919565;29;20375;-82
2023/09/01 13:16:31;;;;;;;24.83;13.32;;;;;;;;;;4906320;29;20399;-82
2023/09/01 13:23:08;;;;;;;30.08;13.75;;;;;;;;;;4919956;29;20036;-83
2023/09/01 13:25:50;;;;;;;28.55;14.98;;;;;;;;;;4902481;29;20048;-82
2023/09/01 13:28:25;;;;;;;31.83;13.90;;;;;;;;;;4902812;29;20048;-82
2023/09/01 13:30:56;;;;;;;30.30;14.18;;;;;;;;;;4904087;29;20407;-81
2023/09/01 13:38:04;;;;;;;34.42;15.05;;;;;;;;;;4904481;29;20062;-83
2023/09/01 13:40:37;;;;;;;35.30;14.82;;;;;;;;;;4896576;29;20040;-83
2023/09/01 13:43:08;;;;;;;32.17;15.43;;;;;;;;;;4900146;29;20103;-82
2023/09/01 13:45:41;;;;;;;37.03;14.43;;;;;;;;;;4906027;29;20059;-81
2023/09/01 13:48:13;;;;;;;34.00;13.85;;;;;;;;;;4922108;29;20569;-82
2023/09/01 13:50:45;;;;;;;30.35;14.23;;;;;;;;;;4917493;29;20520;-82
2023/09/01 13:53:16;;;;;;;35.33;15.10;;;;;;;;;;4934963;29;20059;-81
2023/09/01 13:55:48;;;;;;;33.88;17.08;;;;;;;;;;4885345;29;20156;-81
2023/09/01 13:58:24;;;;;;;18.77;8.63;;;;;;;;;;4917781;29;20067;-82
2023/09/01 14:00:56;;;;;;;14.68;8.32;;;;;;;;;;4900903;29;20048;-81
2023/09/01 14:03:26;;;;;;;16.63;7.10;;;;;;;;;;4900417;29;20055;-81
2023/09/01 14:06:03;;;;;;;16.02;7.00;;;;;;;;;;4899464;29;20052;-82
2023/09/01 14:08:36;;;;;;;13.23;6.72;;;;;;;;;;4905704;29;20483;-82
2023/09/01 14:11:07;;;;;;;13.60;7.07;;;;;;;;;;4919102;29;20040;-81
2023/09/01 14:13:36;;;;;;;17.30;6.57;;;;;;;;;;4917216;29;20075;-82
2023/09/01 14:16:11;;;;;;;17.42;7.32;;;;;;;;;;4886579;29;20055;-81
2023/09/01 14:18:43;;;;;;;18.10;7.50;;;;;;;;;;4916455;29;20052;-83
2023/09/01 14:21:20;;;;;;;17.50;7.70;;;;;;;;;;4918058;29;20052;-82
2023/09/01 14:23:52;;;;;;;21.17;8.25;;;;;;;;;;4918230;29;20052;-84
2023/09/01 14:26:28;;;;;;;17.15;8.10;;;;;;;;;;4913372;29;20047;-81
2023/09/01 14:29:00;;;;;;;23.55;9.07;;;;;;;;;;4937074;29;20055;-81
2023/09/01 14:31:33;;;;;;;;;;;;;;;;;;4921407;29;20050;-81
2023/09/01 14:34:05;;;;;;;14.57;8.00;;;;;;;;;;4921250;29;19926;-79
2023/09/01 14:36:35;;;;;;;26.27;9.45;;;;;;;;;;4936093;29;20068;-80
2023/09/01 14:39:07;;;;;;;22.92;8.95;;;;;;;;;;4936683;29;20052;-81
2023/09/01 14:41:42;;;;;;;24.33;8.32;;;;;;;;;;4920351;29;20051;-79
2023/09/01 14:44:16;;;;;;;18.30;6.88;;;;;;;;;;4919868;29;20063;-83
2023/09/01 14:46:46;;;;;;;12.77;7.05;;;;;;;;;;4937402;29;20383;-82
2023/09/01 14:50:06;;;;;;;;;;;;;;;;;;;;;
2023/09/01 14:57:11;;;;;;;19.58;6.22;;;;;;;;;;4917272;29;20059;-81
2023/09/01 14:59:41;;;;;;;12.25;6.38;;;;;;;;;;4923919;29;20487;-83
2023/09/01 15:02:12;;;;;;;11.02;6.40;;;;;;;;;;4897296;29;20060;-81
2023/09/01 15:04:48;;;;;;;12.43;7.00;;;;;;;;;;4912083;29;20055;-82
2023/09/01 15:07:27;;;;;;;14.40;6.18;;;;;;;;;;4915710;29;20040;-83
2023/09/01 15:09:59;;;;;;;15.15;6.30;;;;;;;;;;4915083;29;20040;-83
2023/09/01 15:12:29;;;;;;;12.07;6.03;;;;;;;;;;4932873;29;20055;-83
2023/09/01 15:15:03;;;;;;;13.18;6.07;;;;;;;;;;4918978;29;20491;-83
2023/09/01 15:17:34;;;;;;;13.23;6.43;;;;;;;;;;4903942;29;20047;-82
2023/09/01 15:20:10;;;;;;;13.57;5.93;;;;;;;;;;4917319;29;20055;-83
2023/09/01 15:22:40;;;;;;;10.40;5.45;;;;;;;;;;4914260;29;20055;-84
2023/09/01 15:25:13;;;;;;;9.63;5.25;;;;;;;;;;4916017;29;20055;-83
2023/09/01 15:27:44;;;;;;;12.43;6.13;;;;;;;;;;4898318;29;20126;-83